KMG weather

Kunming Changshui International Airport
Kunming, Yunnan Province, China

Public forecast

Using degrees Celsius for public forecast. Weather courtesy of forecast.io.

METAR (pilot weather report)

Retrieved 2019/07/21 01:00 UTC (52 minutes ago):

ZPPP 210100Z 21005MPS 9999 FEW006 SCT016 OVC033 18/17 Q1018 NOSIG

TAF (pilot weather forecast)

Forecast is more than 12 hours old.

Retrieved 2019/07/20 00:03 UTC (1 day ago):

TAF ZPPP 201914Z 2100/2124 22004MPS 9999 SCT020 BKN033 TX23/2108Z TN16/2123Z